createdAt,value
2022-10-24T00:01:48.181Z,96254.97
2022-10-24T00:04:16.237Z,96250.97
2022-10-24T00:06:44.318Z,96251.25
2022-10-24T00:09:12.384Z,96255.50
2022-10-24T00:11:43.683Z,96253.13
2022-10-24T00:14:12.677Z,96255.25
2022-10-24T00:16:40.733Z,96252.28
2022-10-24T00:19:10.157Z,96261.09
2022-10-24T00:21:38.217Z,96263.22
2022-10-24T00:24:07.542Z,96261.63
2022-10-24T00:26:36.053Z,96262.69
2022-10-24T00:29:05.196Z,96270.38
2022-10-24T00:31:33.499Z,96270.66
2022-10-24T00:34:01.797Z,96278.38
2022-10-24T00:36:31.806Z,96283.44
2022-10-24T00:38:59.874Z,96279.97
2022-10-24T00:41:33.421Z,96282.88
2022-10-24T00:44:22.056Z,96270.06
2022-10-24T00:46:55.195Z,96271.13
2022-10-24T00:49:29.665Z,96266.56
2022-10-24T00:52:05.551Z,96265.50
2022-10-24T00:54:34.766Z,96258.84
2022-10-24T00:57:10.340Z,96266.84
2022-10-24T00:59:42.614Z,96272.41
2022-10-24T01:02:11.313Z,96272.72
2022-10-24T01:04:39.409Z,96273.75
2022-10-24T01:07:25.529Z,96280.66
2022-10-24T01:10:33.176Z,96275.59
2022-10-24T01:13:16.893Z,96265.75
2022-10-24T01:15:52.145Z,96268.16
2022-10-24T01:18:29.066Z,96270.81
2022-10-24T01:21:11.157Z,96274.78
2022-10-24T01:24:12.785Z,96273.44
2022-10-24T01:27:26.338Z,96273.94
2022-10-24T01:30:04.598Z,96270.50
2022-10-24T01:32:40.758Z,96272.91
2022-10-24T01:35:23.130Z,96269.16
2022-10-24T01:38:00.927Z,96269.69
2022-10-24T01:40:37.331Z,96264.38
2022-10-24T01:43:10.524Z,96266.00
2022-10-24T01:45:43.473Z,96267.84
2022-10-24T01:48:18.313Z,96272.34
2022-10-24T01:50:50.331Z,96277.97
2022-10-24T01:53:21.135Z,96273.69
2022-10-24T01:55:52.687Z,96268.09
2022-10-24T01:58:20.920Z,96270.25
2022-10-24T02:00:53.052Z,96273.16
2022-10-24T02:03:27.913Z,96278.50
2022-10-24T02:06:01.687Z,96283.03
2022-10-24T02:08:35.660Z,96285.41
2022-10-24T02:11:06.765Z,96286.47
2022-10-24T02:13:45.059Z,96288.63
2022-10-24T02:16:19.242Z,96284.38
2022-10-24T02:18:48.282Z,96275.84
2022-10-24T02:21:24.985Z,96259.34
2022-10-24T02:23:58.261Z,96254.53
2022-10-24T02:26:35.489Z,96246.84
2022-10-24T02:29:09.702Z,96248.19
2022-10-24T02:31:43.576Z,96252.69
2022-10-24T02:34:13.936Z,96239.63
2022-10-24T02:36:43.654Z,96240.19
2022-10-24T02:39:13.907Z,96246.03
2022-10-24T02:41:45.318Z,96236.47
2022-10-24T02:44:16.258Z,96235.91
2022-10-24T02:46:47.850Z,96238.31
2022-10-24T02:49:17.106Z,96235.38
2022-10-24T02:51:47.350Z,96232.72
2022-10-24T02:54:15.648Z,96225.56
2022-10-24T02:56:48.549Z,96232.72
2022-10-24T02:59:16.640Z,96227.66
2022-10-24T03:01:46.149Z,96229.53
2022-10-24T03:04:14.241Z,96228.97
2022-10-24T03:06:42.496Z,96245.47
2022-10-24T03:09:10.712Z,96242.53
2022-10-24T03:11:38.871Z,96234.81
2022-10-24T03:14:07.140Z,96245.47
2022-10-24T03:16:35.284Z,96240.69
2022-10-24T03:19:04.689Z,96259.34
2022-10-24T03:21:32.985Z,96265.16
2022-10-24T03:24:01.076Z,96262.78
2022-10-24T03:26:29.211Z,96274.25
2022-10-24T03:28:57.269Z,96274.75
2022-10-24T03:31:25.484Z,96270.75
2022-10-24T03:33:53.558Z,96258.00
2022-10-24T03:36:22.982Z,96247.88
2022-10-24T03:38:51.138Z,96244.44
2022-10-24T03:41:19.206Z,96244.41
2022-10-24T03:43:47.394Z,96232.47
2022-10-24T03:46:15.461Z,96231.66
2022-10-24T03:48:43.559Z,96244.44
2022-10-24T03:51:11.624Z,96241.78
2022-10-24T03:53:40.952Z,96248.13
2022-10-24T03:56:09.517Z,96245.22
2022-10-24T03:58:37.554Z,96246.81
2022-10-24T04:01:06.079Z,96265.47
2022-10-24T04:03:34.345Z,96267.59
2022-10-24T04:06:02.400Z,96274.50
2022-10-24T04:08:30.544Z,96275.84
2022-10-24T04:10:59.947Z,96274.00
2022-10-24T04:13:28.300Z,96274.25
2022-10-24T04:15:56.327Z,96271.88
2022-10-24T04:18:24.605Z,96268.41
2022-10-24T04:20:52.799Z,96269.22
2022-10-24T04:23:20.840Z,96277.22
2022-10-24T04:25:48.950Z,96271.34
2022-10-24T04:28:18.364Z,96259.09
2022-10-24T04:30:46.359Z,96256.16
2022-10-24T04:33:14.446Z,96253.50
2022-10-24T04:35:49.000Z,96240.47
2022-10-24T04:38:17.566Z,96234.63
2022-10-24T04:40:49.300Z,96234.63
2022-10-24T04:43:19.136Z,96242.34
2022-10-24T04:45:47.538Z,96254.59
2022-10-24T04:48:16.461Z,96260.72
2022-10-24T04:50:47.348Z,96258.06
2022-10-24T04:53:16.247Z,96251.91
2022-10-24T04:55:45.337Z,96257.00
2022-10-24T04:58:13.644Z,96256.94
2022-10-24T05:00:46.567Z,96260.16
2022-10-24T05:03:14.658Z,96257.78
2022-10-24T05:05:42.861Z,96254.03
2022-10-24T05:08:10.919Z,96262.53
2022-10-24T05:10:39.114Z,96266.81
2022-10-24T05:13:07.211Z,96274.28
2022-10-24T05:15:35.429Z,96261.47
2022-10-24T05:18:05.592Z,96273.16
2022-10-24T05:20:33.843Z,96291.84
2022-10-24T05:23:02.215Z,96296.88
2022-10-24T05:25:30.388Z,96296.88
2022-10-24T05:27:58.716Z,96290.53
2022-10-24T05:30:26.789Z,96297.72
2022-10-24T05:32:54.798Z,96288.13
2022-10-24T05:35:24.185Z,96283.88
2022-10-24T05:37:52.283Z,96288.69
2022-10-24T05:40:20.775Z,96290.25
2022-10-24T05:42:49.876Z,96285.47
2022-10-24T05:45:17.923Z,96281.22
2022-10-24T05:47:46.489Z,96271.63
2022-10-24T05:50:15.540Z,96274.28
2022-10-24T05:52:47.120Z,96275.88
2022-10-24T05:55:17.914Z,96292.41
2022-10-24T05:57:47.334Z,96295.34
2022-10-24T06:00:18.211Z,96308.09
2022-10-24T06:05:21.024Z,96325.06
2022-10-24T06:07:50.431Z,96333.31
2022-10-24T06:10:18.522Z,96322.41
2022-10-24T06:12:46.835Z,96314.41
2022-10-24T06:15:15.342Z,96306.38
2022-10-24T06:17:43.515Z,96332.22
2022-10-24T06:20:12.165Z,96314.66
2022-10-24T06:22:42.258Z,96299.22
2022-10-24T06:25:12.808Z,96300.03
2022-10-24T06:27:42.012Z,96313.06
2022-10-24T06:30:11.936Z,96316.25
2022-10-24T06:32:43.598Z,96333.56
2022-10-24T06:35:14.706Z,96345.53
2022-10-24T06:37:45.827Z,96348.75
2022-10-24T06:40:17.944Z,96341.00
2022-10-24T06:42:46.311Z,96350.84
2022-10-24T06:45:15.024Z,96362.03
2022-10-24T06:47:43.344Z,96363.81
2022-10-24T06:50:11.650Z,96384.03
2022-10-24T06:52:39.686Z,96391.72
2022-10-24T06:55:08.841Z,96372.34
2022-10-24T06:57:38.283Z,96343.06
2022-10-24T07:00:08.924Z,96339.59
2022-10-24T07:02:37.331Z,96338.50
2022-10-24T07:05:08.940Z,96337.94
2022-10-24T07:07:36.965Z,96345.34
2022-10-24T07:10:05.747Z,96347.22
2022-10-24T07:12:34.524Z,96346.66
2022-10-24T07:15:04.427Z,96353.78
2022-10-24T07:17:32.720Z,96359.91
2022-10-24T07:20:00.702Z,96360.19
2022-10-24T07:22:30.317Z,96340.72
2022-10-24T07:25:00.806Z,96347.59
2022-10-24T07:27:29.135Z,96351.03
2022-10-24T07:29:58.553Z,96336.66
2022-10-24T07:32:29.862Z,96347.31
2022-10-24T07:34:57.864Z,96344.88
2022-10-24T07:39:58.860Z,96357.63
2022-10-24T07:42:26.885Z,96348.38
2022-10-24T07:44:54.953Z,96348.09
2022-10-24T07:47:23.027Z,96353.69
2022-10-24T07:49:52.520Z,96366.16
2022-10-24T07:52:20.540Z,96376.34
2022-10-24T07:54:48.585Z,96364.31
2022-10-24T07:57:16.798Z,96371.22
2022-10-24T07:59:44.908Z,96365.97
2022-10-24T08:02:14.462Z,96377.13
2022-10-24T08:04:42.754Z,96375.31
2022-10-24T08:07:14.067Z,96366.66
2022-10-24T08:09:44.441Z,96371.22
2022-10-24T08:12:12.745Z,96364.38
2022-10-24T08:14:42.262Z,96358.19
2022-10-24T08:17:11.124Z,96347.09
2022-10-24T08:19:44.075Z,96341.78
2022-10-24T08:22:14.013Z,96347.09
2022-10-24T08:24:43.593Z,96345.19
2022-10-24T08:27:12.084Z,96339.66
2022-10-24T08:29:40.465Z,96352.97
2022-10-24T08:32:08.569Z,96345.78
2022-10-24T08:34:38.296Z,96346.00
2022-10-24T08:37:06.344Z,96346.59
2022-10-24T08:39:35.766Z,96342.38
2022-10-24T08:42:08.422Z,96354.03
2022-10-24T08:44:40.731Z,96353.25
2022-10-24T08:47:17.787Z,96350.59
2022-10-24T08:49:51.111Z,96341.81
2022-10-24T08:52:33.313Z,96355.13
2022-10-24T08:55:25.226Z,96351.69
2022-10-24T08:58:02.726Z,96350.03
2022-10-24T09:00:36.592Z,96344.78
2022-10-24T09:03:11.061Z,96358.59
2022-10-24T09:05:44.327Z,96368.16
2022-10-24T09:08:25.586Z,96376.13
2022-10-24T09:11:01.644Z,96375.63
2022-10-24T09:13:31.789Z,96381.44
2022-10-24T09:15:59.901Z,96387.53
2022-10-24T09:18:34.083Z,96404.56
2022-10-24T09:21:03.608Z,96407.53
2022-10-24T09:23:34.889Z,96399.25
2022-10-24T09:26:07.875Z,96392.34
2022-10-24T09:28:40.201Z,96389.94
2022-10-24T09:31:18.616Z,96391.56
2022-10-24T09:33:50.023Z,96397.66
2022-10-24T09:36:24.834Z,96397.66
2022-10-24T09:38:53.015Z,96393.41
2022-10-24T09:41:25.555Z,96394.25
2022-10-24T09:43:57.487Z,96399.56
2022-10-24T09:46:28.049Z,96400.63
2022-10-24T09:48:59.200Z,96399.56
2022-10-24T09:51:33.665Z,96402.72
2022-10-24T09:54:26.211Z,96398.69
2022-10-24T09:57:05.176Z,96395.78
2022-10-24T09:59:40.830Z,96402.22
2022-10-24T10:02:24.447Z,96404.06
2022-10-24T10:05:21.534Z,96398.72
2022-10-24T10:07:51.323Z,96400.81
2022-10-24T10:10:31.371Z,96393.94
2022-10-24T10:13:18.908Z,96399.00
2022-10-24T10:15:50.333Z,96403.31
2022-10-24T10:18:35.879Z,96402.75
2022-10-24T10:21:11.793Z,96394.78
2022-10-24T10:23:44.022Z,96401.44
2022-10-24T10:26:27.227Z,96404.91
2022-10-24T10:29:06.852Z,96403.09
2022-10-24T10:31:43.765Z,96395.34
2022-10-24T10:34:23.939Z,96403.88
2022-10-24T10:37:24.586Z,96403.09
2022-10-24T10:40:30.300Z,96405.50
2022-10-24T10:43:25.565Z,96406.47
2022-10-24T10:46:11.988Z,96412.03
2022-10-24T10:49:00.309Z,96423.03
2022-10-24T10:51:42.979Z,96432.59
2022-10-24T10:54:34.025Z,96423.72
2022-10-24T10:57:08.891Z,96436.78
2022-10-24T10:59:53.034Z,96434.16
2022-10-24T11:02:55.778Z,96426.97
2022-10-24T11:05:36.999Z,96438.88
2022-10-24T11:08:24.111Z,96431.75
2022-10-24T11:10:58.823Z,96432.56
2022-10-24T11:13:34.246Z,96439.47
2022-10-24T11:16:07.218Z,96436.78
2022-10-24T11:18:40.996Z,96436.56
2022-10-24T11:21:11.710Z,96430.44
2022-10-24T11:23:45.874Z,96428.88
2022-10-24T11:26:20.874Z,96423.31
2022-10-24T11:28:58.022Z,96420.72
2022-10-24T11:31:33.487Z,96421.69
2022-10-24T11:34:12.421Z,96418.50
2022-10-24T11:36:50.812Z,96419.50
2022-10-24T11:39:27.365Z,96415.81
2022-10-24T11:45:02.374Z,96410.59
2022-10-24T11:47:56.086Z,96411.94
2022-10-24T11:50:34.898Z,96408.75
2022-10-24T11:53:16.403Z,96406.38
2022-10-24T11:55:51.479Z,96391.72
2022-10-24T11:58:24.389Z,96398.41
2022-10-24T12:01:26.091Z,96385.34
2022-10-24T12:05:10.899Z,96396.00
2022-10-24T12:08:14.160Z,96381.06
2022-10-24T12:11:06.610Z,96375.78
2022-10-24T12:14:08.741Z,96374.78
2022-10-24T12:16:53.541Z,96372.66
2022-10-24T12:19:23.486Z,96371.06
2022-10-24T12:21:55.929Z,96358.84
2022-10-24T12:24:32.895Z,96363.41
2022-10-24T12:27:04.256Z,96362.06
2022-10-24T12:29:34.986Z,96351.94
2022-10-24T12:32:31.301Z,96361.81
2022-10-24T12:35:28.966Z,96359.66
2022-10-24T12:37:50.086Z,96361.56
2022-10-24T12:40:56.471Z,96368.47
2022-10-24T12:43:34.416Z,96371.13
2022-10-24T12:46:24.344Z,96374.06
2022-10-24T12:49:26.394Z,96376.47
2022-10-24T12:51:54.665Z,96372.97
2022-10-24T12:54:41.918Z,96376.47
2022-10-24T12:57:28.859Z,96379.97
2022-10-24T12:59:59.472Z,96388.19
2022-10-24T13:02:49.249Z,96381.03
2022-10-24T13:05:55.458Z,96383.97
2022-10-24T13:08:45.888Z,96375.47
2022-10-24T13:11:34.199Z,96375.22
2022-10-24T13:14:28.838Z,96373.91
2022-10-24T13:17:07.440Z,96361.91
2022-10-24T13:19:36.761Z,96370.97
2022-10-24T13:22:06.266Z,96365.41
2022-10-24T13:24:36.978Z,96371.00
2022-10-24T13:27:33.120Z,96370.50
2022-10-24T13:30:33.783Z,96384.09
2022-10-24T13:33:42.853Z,96379.56
2022-10-24T13:36:27.068Z,96384.59
2022-10-24T13:39:01.660Z,96375.31
2022-10-24T13:41:34.336Z,96369.19
2022-10-24T13:44:08.653Z,96367.84
2022-10-24T13:46:46.845Z,96375.59
2022-10-24T13:49:24.636Z,96384.66
2022-10-24T13:51:58.004Z,96393.66
2022-10-24T13:54:31.167Z,96389.41
2022-10-24T13:57:01.995Z,96385.41
2022-10-24T13:59:33.383Z,96395.25
2022-10-24T14:02:06.296Z,96388.34
2022-10-24T14:04:36.074Z,96395.84
2022-10-24T14:07:06.821Z,96385.72
2022-10-24T14:09:42.881Z,96393.16
2022-10-24T14:12:20.510Z,96392.38
2022-10-24T14:14:51.204Z,96390.25
2022-10-24T14:17:25.906Z,96376.09
2022-10-24T14:19:58.075Z,96372.13
2022-10-24T14:22:30.618Z,96375.84
2022-10-24T14:25:00.005Z,96381.72
2022-10-24T14:27:28.317Z,96370.53
2022-10-24T14:30:01.326Z,96374.53
2022-10-24T14:32:32.055Z,96375.84
2022-10-24T14:37:38.323Z,96381.50
2022-10-24T14:40:16.806Z,96392.66
2022-10-24T14:42:47.250Z,96386.81
2022-10-24T14:45:27.362Z,96396.41
2022-10-24T14:47:57.731Z,96395.09
2022-10-24T14:50:41.840Z,96397.50
2022-10-24T14:53:25.024Z,96392.22
2022-10-24T14:55:57.834Z,96388.72
2022-10-24T14:58:28.901Z,96386.06
2022-10-24T15:00:59.033Z,96385.53
2022-10-24T15:03:29.025Z,96384.47
2022-10-24T15:06:07.417Z,96378.88
2022-10-24T15:08:39.706Z,96377.00
2022-10-24T15:11:40.317Z,96373.78
2022-10-24T15:14:34.232Z,96382.56
2022-10-24T15:17:27.106Z,96382.06
2022-10-24T15:20:01.567Z,96385.25
2022-10-24T15:22:32.856Z,96387.66
2022-10-24T15:25:05.288Z,96385.25
2022-10-24T15:27:42.272Z,96395.31
2022-10-24T15:30:16.318Z,96402.53
2022-10-24T15:32:45.903Z,96405.97
2022-10-24T15:35:15.529Z,96406.75
2022-10-24T15:37:54.756Z,96409.41
2022-10-24T15:40:26.101Z,96414.47
2022-10-24T15:42:55.761Z,96420.31
2022-10-24T15:45:24.278Z,96410.13
2022-10-24T15:47:53.828Z,96399.19
2022-10-24T15:50:24.865Z,96408.25
2022-10-24T15:52:55.714Z,96403.97
2022-10-24T15:55:26.681Z,96409.53
2022-10-24T15:57:59.796Z,96414.03
2022-10-24T16:00:28.157Z,96422.22
2022-10-24T16:03:04.325Z,96402.78
2022-10-24T16:05:40.749Z,96412.09
2022-10-24T16:08:14.608Z,96415.88
2022-10-24T16:10:43.846Z,96419.59
2022-10-24T16:13:15.440Z,96418.50
2022-10-24T16:15:44.156Z,96422.22
2022-10-24T16:18:13.106Z,96420.63
2022-10-24T16:20:42.155Z,96434.41
2022-10-24T16:23:12.347Z,96428.78
2022-10-24T16:25:40.450Z,96441.25
2022-10-24T16:28:08.848Z,96455.94
2022-10-24T16:30:41.103Z,96458.53
2022-10-24T16:33:09.470Z,96458.00
2022-10-24T16:35:39.969Z,96468.34
2022-10-24T16:38:10.224Z,96467.25
2022-10-24T16:43:18.274Z,96473.88
2022-10-24T16:45:58.053Z,96465.41
2022-10-24T16:48:26.488Z,96467.22
2022-10-24T16:50:55.206Z,96466.69
2022-10-24T16:53:24.102Z,96454.94
2022-10-24T16:55:55.544Z,96455.19
2022-10-24T16:58:23.887Z,96465.81
2022-10-24T17:01:02.434Z,96465.88
2022-10-24T17:03:30.563Z,96457.03
2022-10-24T17:05:58.767Z,96462.06
2022-10-24T17:08:27.605Z,96472.16
2022-10-24T17:10:56.182Z,96468.41
2022-10-24T17:13:25.511Z,96476.97
2022-10-24T17:15:54.933Z,96476.69
2022-10-24T17:18:23.610Z,96468.56
2022-10-24T17:20:58.233Z,96468.56
2022-10-24T17:23:27.741Z,96475.69
2022-10-24T17:25:56.714Z,96466.38
2022-10-24T17:28:26.844Z,96471.69
2022-10-24T17:30:59.365Z,96465.88
2022-10-24T17:33:27.842Z,96467.72
2022-10-24T17:35:58.400Z,96471.19
2022-10-24T17:38:40.441Z,96469.06
2022-10-24T17:41:20.396Z,96479.31
2022-10-24T17:43:49.284Z,96491.28
2022-10-24T17:46:19.601Z,96493.91
2022-10-24T17:48:47.731Z,96495.22
2022-10-24T17:51:19.017Z,96509.34
2022-10-24T17:53:47.123Z,96536.44
2022-10-24T17:56:16.239Z,96618.31
2022-10-24T17:58:46.595Z,96667.34
2022-10-24T18:01:14.748Z,96655.63
2022-10-24T18:03:44.726Z,96627.16
2022-10-24T18:06:13.446Z,96635.91
2022-10-24T18:08:41.747Z,96631.47
2022-10-24T18:11:11.819Z,96622.09
2022-10-24T18:13:40.664Z,96627.22
2022-10-24T18:16:09.987Z,96623.81
2022-10-24T18:18:39.915Z,96624.19
2022-10-24T18:21:11.266Z,96613.72
2022-10-24T18:23:39.976Z,96593.13
2022-10-24T18:26:08.929Z,96593.13
2022-10-24T18:28:41.725Z,96598.53
2022-10-24T18:31:11.917Z,96584.69
2022-10-24T18:33:41.439Z,96588.72
2022-10-24T18:36:13.275Z,96583.38
2022-10-24T18:38:43.217Z,96581.25
2022-10-24T18:41:34.905Z,96593.00
2022-10-24T18:44:14.155Z,96592.84
2022-10-24T18:46:43.114Z,96597.69
2022-10-24T18:49:12.306Z,96589.63
2022-10-24T18:51:50.299Z,96598.16
2022-10-24T18:54:20.470Z,96592.22
2022-10-24T18:56:49.357Z,96584.66
2022-10-24T18:59:20.790Z,96588.44
2022-10-24T19:02:02.930Z,96606.09
2022-10-24T19:04:32.818Z,96618.41
2022-10-24T19:07:04.912Z,96625.56
2022-10-24T19:09:33.833Z,96624.19
2022-10-24T19:12:02.529Z,96616.88
2022-10-24T19:14:31.033Z,96620.59
2022-10-24T19:17:03.040Z,96603.84
2022-10-24T19:19:35.731Z,96568.22
2022-10-24T19:22:05.250Z,96584.16
2022-10-24T19:24:33.540Z,96582.22
2022-10-24T19:27:01.748Z,96579.19
2022-10-24T19:29:30.218Z,96576.53
2022-10-24T19:31:58.616Z,96564.69
2022-10-24T19:34:28.274Z,96560.28
2022-10-24T19:36:57.398Z,96553.38
2022-10-24T19:39:29.202Z,96555.84
2022-10-24T19:42:00.995Z,96568.00
2022-10-24T19:44:29.193Z,96577.56
2022-10-24T19:46:57.211Z,96569.75
2022-10-24T19:49:25.361Z,96562.94
2022-10-24T19:51:54.084Z,96561.41
2022-10-24T19:54:22.216Z,96587.47
2022-10-24T19:56:54.265Z,96597.56
2022-10-24T19:59:22.811Z,96601.00
2022-10-24T20:01:50.950Z,96619.53
2022-10-24T20:04:19.149Z,96624.94
2022-10-24T20:06:47.986Z,96625.28
2022-10-24T20:09:16.122Z,96633.03
2022-10-24T20:11:44.159Z,96633.34
2022-10-24T20:14:13.811Z,96634.94
2022-10-24T20:16:42.316Z,96641.97
2022-10-24T20:19:10.338Z,96628.47
2022-10-24T20:21:38.405Z,96641.81
2022-10-24T20:24:07.746Z,96647.19
2022-10-24T20:26:36.261Z,96647.19
2022-10-24T20:29:05.084Z,96654.59
2022-10-24T20:31:38.128Z,96651.59
2022-10-24T20:34:09.745Z,96655.38
2022-10-24T20:36:39.088Z,96661.75
2022-10-24T20:39:08.910Z,96640.13
2022-10-24T20:41:38.147Z,96636.19
2022-10-24T20:44:07.455Z,96640.72
2022-10-24T20:46:37.391Z,96638.38
2022-10-24T20:49:05.999Z,96631.13
2022-10-24T20:51:34.083Z,96639.81
2022-10-24T20:54:02.135Z,96636.59
2022-10-24T20:56:30.243Z,96636.03
2022-10-24T20:58:58.284Z,96631.66
2022-10-24T21:01:29.082Z,96637.56
2022-10-24T21:03:59.525Z,96651.38
2022-10-24T21:06:30.110Z,96646.06
2022-10-24T21:09:00.957Z,96647.59
2022-10-24T21:11:31.633Z,96653.84
2022-10-24T21:14:02.651Z,96651.28
2022-10-24T21:16:31.348Z,96656.59
2022-10-24T21:19:01.184Z,96658.78
2022-10-24T21:21:30.054Z,96663.34
2022-10-24T21:24:04.493Z,96670.94
2022-10-24T21:26:35.236Z,96672.69
2022-10-24T21:29:09.237Z,96676.06
2022-10-24T21:31:50.358Z,96673.41
2022-10-24T21:34:20.744Z,96673.88
2022-10-24T21:36:49.175Z,96666.31
2022-10-24T21:39:17.954Z,96677.22
2022-10-24T21:41:46.347Z,96684.94
2022-10-24T21:44:15.019Z,96691.44
2022-10-24T21:46:43.410Z,96688.78
2022-10-24T21:49:11.934Z,96694.19
2022-10-24T21:51:42.762Z,96694.66
2022-10-24T21:54:18.877Z,96697.06
2022-10-24T21:56:47.568Z,96696.84
2022-10-24T21:59:18.637Z,96693.88
2022-10-24T22:01:48.716Z,96688.19
2022-10-24T22:04:18.295Z,96686.81
2022-10-24T22:06:47.905Z,96688.66
2022-10-24T22:09:18.920Z,96702.47
2022-10-24T22:11:47.467Z,96706.09
2022-10-24T22:14:17.601Z,96712.63
2022-10-24T22:16:45.756Z,96711.25
2022-10-24T22:19:14.889Z,96711.84
2022-10-24T22:21:46.331Z,96712.84
2022-10-24T22:24:17.935Z,96707.00
2022-10-24T22:26:46.343Z,96708.28
2022-10-24T22:29:17.022Z,96708.03
2022-10-24T22:31:46.149Z,96709.41
2022-10-24T22:34:18.372Z,96712.88
2022-10-24T22:37:12.835Z,96708.75
2022-10-24T22:39:43.483Z,96716.00
2022-10-24T22:42:14.912Z,96719.25
2022-10-24T22:44:46.924Z,96715.53
2022-10-24T22:48:02.064Z,96716.59
2022-10-24T22:50:52.566Z,96722.25
2022-10-24T22:53:24.582Z,96726.03
2022-10-24T22:56:11.436Z,96723.28
2022-10-24T22:58:41.569Z,96726.72
2022-10-24T23:01:21.219Z,96727.53
2022-10-24T23:04:12.476Z,96721.09
2022-10-24T23:06:47.547Z,96725.13
2022-10-24T23:09:15.676Z,96725.94
2022-10-24T23:11:45.934Z,96728.81
2022-10-24T23:16:57.400Z,96736.19
2022-10-24T23:19:28.447Z,96736.41
2022-10-24T23:22:00.346Z,96733.06
2022-10-24T23:24:29.403Z,96738.25
2022-10-24T23:27:24.641Z,96737.13
2022-10-24T23:29:53.550Z,96741.25
2022-10-24T23:32:24.996Z,96747.47
2022-10-24T23:34:54.962Z,96735.03
2022-10-24T23:37:34.547Z,96747.72
2022-10-24T23:40:13.061Z,96743.66
2022-10-24T23:42:43.897Z,96741.81
2022-10-24T23:45:14.595Z,96735.47
2022-10-24T23:48:17.153Z,96741.00
2022-10-24T23:50:55.201Z,96743.91
2022-10-24T23:53:40.981Z,96737.09
2022-10-24T23:56:12.773Z,96749.66
2022-10-24T23:58:42.568Z,96741.13
